sensor_id;sensor_type;location;lat;lon;timestamp;temperature;humidity
16297;DHT22;8256;56.144;13.394;2022-09-09T00:02:27;14.40;99.90
16297;DHT22;8256;56.144;13.394;2022-09-09T00:05:21;14.40;99.90
16297;DHT22;8256;56.144;13.394;2022-09-09T00:08:09;14.50;99.90
16297;DHT22;8256;56.144;13.394;2022-09-09T00:10:59;14.50;99.90
16297;DHT22;8256;56.144;13.394;2022-09-09T00:13:47;14.50;99.90
16297;DHT22;8256;56.144;13.394;2022-09-09T00:16:35;14.50;99.90
16297;DHT22;8256;56.144;13.394;2022-09-09T00:19:28;14.50;99.90
16297;DHT22;8256;56.144;13.394;2022-09-09T00:22:19;14.60;99.90
16297;DHT22;8256;56.144;13.394;2022-09-09T00:25:09;14.60;99.90
16297;DHT22;8256;56.144;13.394;2022-09-09T00:27:56;14.60;99.90
16297;DHT22;8256;56.144;13.394;2022-09-09T00:30:42;14.60;99.90
16297;DHT22;8256;56.144;13.394;2022-09-09T00:33:28;14.40;99.90
16297;DHT22;8256;56.144;13.394;2022-09-09T00:36:17;14.40;99.90
16297;DHT22;8256;56.144;13.394;2022-09-09T00:39:04;14.30;99.90
16297;DHT22;8256;56.144;13.394;2022-09-09T00:44:36;14.30;99.90
16297;DHT22;8256;56.144;13.394;2022-09-09T00:47:39;14.30;99.90
16297;DHT22;8256;56.144;13.394;2022-09-09T00:50:29;14.30;99.90
16297;DHT22;8256;56.144;13.394;2022-09-09T00:59:07;14.10;99.90
16297;DHT22;8256;56.144;13.394;2022-09-09T01:01:57;14.00;99.90
16297;DHT22;8256;56.144;13.394;2022-09-09T01:04:44;14.00;99.90
16297;DHT22;8256;56.144;13.394;2022-09-09T01:07:30;14.00;99.90
16297;DHT22;8256;56.144;13.394;2022-09-09T01:10:30;13.90;99.90
16297;DHT22;8256;56.144;13.394;2022-09-09T01:13:25;13.90;99.90
16297;DHT22;8256;56.144;13.394;2022-09-09T01:16:11;13.80;99.90
16297;DHT22;8256;56.144;13.394;2022-09-09T01:18:58;13.70;99.90
16297;DHT22;8256;56.144;13.394;2022-09-09T01:21:50;13.70;99.90
16297;DHT22;8256;56.144;13.394;2022-09-09T01:24:43;13.80;99.90
16297;DHT22;8256;56.144;13.394;2022-09-09T01:27:32;13.80;99.90
16297;DHT22;8256;56.144;13.394;2022-09-09T01:30:18;13.80;99.90
16297;DHT22;8256;56.144;13.394;2022-09-09T01:33:04;13.80;99.90
16297;DHT22;8256;56.144;13.394;2022-09-09T01:38:36;13.80;99.90
16297;DHT22;8256;56.144;13.394;2022-09-09T01:41:22;13.80;99.90
16297;DHT22;8256;56.144;13.394;2022-09-09T01:44:08;13.90;99.90
16297;DHT22;8256;56.144;13.394;2022-09-09T01:46:54;13.90;99.90
16297;DHT22;8256;56.144;13.394;2022-09-09T01:49:40;13.90;99.90
16297;DHT22;8256;56.144;13.394;2022-09-09T01:52:26;13.90;99.90
16297;DHT22;8256;56.144;13.394;2022-09-09T01:55:11;13.80;99.90
16297;DHT22;8256;56.144;13.394;2022-09-09T01:58:04;13.90;99.90
16297;DHT22;8256;56.144;13.394;2022-09-09T02:01:06;13.80;99.90
16297;DHT22;8256;56.144;13.394;2022-09-09T02:03:54;13.80;99.90
16297;DHT22;8256;56.144;13.394;2022-09-09T02:06:41;13.90;99.90
16297;DHT22;8256;56.144;13.394;2022-09-09T02:09:29;13.90;99.90
16297;DHT22;8256;56.144;13.394;2022-09-09T02:12:16;13.90;99.90
16297;DHT22;8256;56.144;13.394;2022-09-09T02:15:05;13.90;99.90
16297;DHT22;8256;56.144;13.394;2022-09-09T02:17:53;13.90;99.90
16297;DHT22;8256;56.144;13.394;2022-09-09T02:20:40;13.90;99.90
16297;DHT22;8256;56.144;13.394;2022-09-09T02:23:28;14.10;99.90
16297;DHT22;8256;56.144;13.394;2022-09-09T02:26:14;13.90;99.90
16297;DHT22;8256;56.144;13.394;2022-09-09T02:29:08;13.90;99.90
16297;DHT22;8256;56.144;13.394;2022-09-09T02:31:55;14.00;99.90
16297;DHT22;8256;56.144;13.394;2022-09-09T02:34:43;14.00;99.90
16297;DHT22;8256;56.144;13.394;2022-09-09T02:37:32;14.10;99.90
16297;DHT22;8256;56.144;13.394;2022-09-09T02:40:19;14.10;99.90
16297;DHT22;8256;56.144;13.394;2022-09-09T02:43:05;13.90;99.90
16297;DHT22;8256;56.144;13.394;2022-09-09T02:45:55;13.90;99.90
16297;DHT22;8256;56.144;13.394;2022-09-09T02:48:58;14.10;99.90
16297;DHT22;8256;56.144;13.394;2022-09-09T02:51:49;13.90;99.90
16297;DHT22;8256;56.144;13.394;2022-09-09T02:54:39;13.90;99.90
16297;DHT22;8256;56.144;13.394;2022-09-09T02:57:26;14.10;99.90
16297;DHT22;8256;56.144;13.394;2022-09-09T03:00:13;14.00;99.90
16297;DHT22;8256;56.144;13.394;2022-09-09T03:02:59;13.90;99.90
16297;DHT22;8256;56.144;13.394;2022-09-09T03:05:45;13.90;99.90
16297;DHT22;8256;56.144;13.394;2022-09-09T03:08:31;14.00;99.90
16297;DHT22;8256;56.144;13.394;2022-09-09T03:11:17;14.10;99.90
16297;DHT22;8256;56.144;13.394;2022-09-09T03:14:03;14.00;99.90
16297;DHT22;8256;56.144;13.394;2022-09-09T03:16:48;14.10;99.90
16297;DHT22;8256;56.144;13.394;2022-09-09T03:19:34;14.20;99.90
16297;DHT22;8256;56.144;13.394;2022-09-09T03:22:20;14.30;99.90
16297;DHT22;8256;56.144;13.394;2022-09-09T03:25:07;14.40;99.90
16297;DHT22;8256;56.144;13.394;2022-09-09T03:27:53;14.40;99.90
16297;DHT22;8256;56.144;13.394;2022-09-09T03:30:40;14.20;99.90
16297;DHT22;8256;56.144;13.394;2022-09-09T03:33:26;14.10;99.90
16297;DHT22;8256;56.144;13.394;2022-09-09T03:36:12;14.10;99.90
16297;DHT22;8256;56.144;13.394;2022-09-09T03:38:57;14.00;99.90
16297;DHT22;8256;56.144;13.394;2022-09-09T03:41:44;14.20;99.90
16297;DHT22;8256;56.144;13.394;2022-09-09T03:44:31;14.10;99.90
16297;DHT22;8256;56.144;13.394;2022-09-09T03:47:18;14.00;99.90
16297;DHT22;8256;56.144;13.394;2022-09-09T03:50:05;13.80;99.90
16297;DHT22;8256;56.144;13.394;2022-09-09T03:52:53;13.90;99.90
16297;DHT22;8256;56.144;13.394;2022-09-09T03:55:41;13.90;99.90
16297;DHT22;8256;56.144;13.394;2022-09-09T03:58:28;13.90;99.90
16297;DHT22;8256;56.144;13.394;2022-09-09T04:01:14;13.80;99.90
16297;DHT22;8256;56.144;13.394;2022-09-09T04:04:00;13.80;99.90
16297;DHT22;8256;56.144;13.394;2022-09-09T04:06:47;13.60;99.90
16297;DHT22;8256;56.144;13.394;2022-09-09T04:09:36;13.70;99.90
16297;DHT22;8256;56.144;13.394;2022-09-09T04:12:22;13.70;99.90
16297;DHT22;8256;56.144;13.394;2022-09-09T04:15:08;13.50;99.90
16297;DHT22;8256;56.144;13.394;2022-09-09T04:17:54;13.70;99.90
16297;DHT22;8256;56.144;13.394;2022-09-09T04:20:40;13.60;99.90
16297;DHT22;8256;56.144;13.394;2022-09-09T04:23:28;13.60;99.90
16297;DHT22;8256;56.144;13.394;2022-09-09T04:26:15;13.60;99.90
16297;DHT22;8256;56.144;13.394;2022-09-09T04:29:00;13.60;99.90
16297;DHT22;8256;56.144;13.394;2022-09-09T04:31:46;13.40;99.90
16297;DHT22;8256;56.144;13.394;2022-09-09T04:34:32;13.40;99.90
16297;DHT22;8256;56.144;13.394;2022-09-09T04:37:18;13.20;99.90
16297;DHT22;8256;56.144;13.394;2022-09-09T04:40:04;13.20;99.90
16297;DHT22;8256;56.144;13.394;2022-09-09T04:42:50;13.30;99.90
16297;DHT22;8256;56.144;13.394;2022-09-09T04:45:36;13.10;99.90
16297;DHT22;8256;56.144;13.394;2022-09-09T04:48:22;13.20;99.90
16297;DHT22;8256;56.144;13.394;2022-09-09T04:51:11;13.20;99.90
16297;DHT22;8256;56.144;13.394;2022-09-09T04:53:57;13.40;99.90
16297;DHT22;8256;56.144;13.394;2022-09-09T04:56:43;13.20;99.90
16297;DHT22;8256;56.144;13.394;2022-09-09T04:59:28;13.30;99.90
16297;DHT22;8256;56.144;13.394;2022-09-09T05:02:14;13.40;99.90
16297;DHT22;8256;56.144;13.394;2022-09-09T05:05:00;13.30;99.90
16297;DHT22;8256;56.144;13.394;2022-09-09T05:07:46;13.20;99.90
16297;DHT22;8256;56.144;13.394;2022-09-09T05:10:33;13.40;99.90
16297;DHT22;8256;56.144;13.394;2022-09-09T05:13:20;13.40;99.90
16297;DHT22;8256;56.144;13.394;2022-09-09T05:16:06;13.20;99.90
16297;DHT22;8256;56.144;13.394;2022-09-09T05:18:52;13.30;99.90
16297;DHT22;8256;56.144;13.394;2022-09-09T05:21:37;13.20;99.90
16297;DHT22;8256;56.144;13.394;2022-09-09T05:24:23;13.20;99.90
16297;DHT22;8256;56.144;13.394;2022-09-09T05:27:09;13.20;99.90
16297;DHT22;8256;56.144;13.394;2022-09-09T05:29:57;13.30;99.90
16297;DHT22;8256;56.144;13.394;2022-09-09T05:32:43;13.20;99.90
16297;DHT22;8256;56.144;13.394;2022-09-09T05:35:29;13.20;99.90
16297;DHT22;8256;56.144;13.394;2022-09-09T05:38:15;13.10;99.90
16297;DHT22;8256;56.144;13.394;2022-09-09T05:41:02;13.30;99.90
16297;DHT22;8256;56.144;13.394;2022-09-09T05:43:48;13.10;99.90
16297;DHT22;8256;56.144;13.394;2022-09-09T05:46:34;13.20;99.90
16297;DHT22;8256;56.144;13.394;2022-09-09T05:49:20;13.30;99.90
16297;DHT22;8256;56.144;13.394;2022-09-09T05:52:07;13.20;99.90
16297;DHT22;8256;56.144;13.394;2022-09-09T05:54:52;13.40;99.90
16297;DHT22;8256;56.144;13.394;2022-09-09T05:57:40;13.10;99.90
16297;DHT22;8256;56.144;13.394;2022-09-09T06:00:26;13.30;99.90
16297;DHT22;8256;56.144;13.394;2022-09-09T06:03:12;13.20;99.90
16297;DHT22;8256;56.144;13.394;2022-09-09T06:06:01;13.20;99.90
16297;DHT22;8256;56.144;13.394;2022-09-09T06:08:51;13.30;99.90
16297;DHT22;8256;56.144;13.394;2022-09-09T06:11:38;13.40;99.90
16297;DHT22;8256;56.144;13.394;2022-09-09T06:14:24;13.50;99.90
16297;DHT22;8256;56.144;13.394;2022-09-09T06:17:10;13.60;99.90
16297;DHT22;8256;56.144;13.394;2022-09-09T06:19:56;13.70;99.90
16297;DHT22;8256;56.144;13.394;2022-09-09T06:22:42;13.50;99.90
16297;DHT22;8256;56.144;13.394;2022-09-09T06:25:28;13.70;99.90
16297;DHT22;8256;56.144;13.394;2022-09-09T06:28:14;13.60;99.90
16297;DHT22;8256;56.144;13.394;2022-09-09T06:31:01;13.60;99.90
16297;DHT22;8256;56.144;13.394;2022-09-09T06:33:47;13.80;99.90
16297;DHT22;8256;56.144;13.394;2022-09-09T06:36:34;13.70;99.90
16297;DHT22;8256;56.144;13.394;2022-09-09T06:39:20;13.80;99.90
16297;DHT22;8256;56.144;13.394;2022-09-09T06:42:07;13.70;99.90
16297;DHT22;8256;56.144;13.394;2022-09-09T06:44:54;13.80;99.90
16297;DHT22;8256;56.144;13.394;2022-09-09T06:47:39;14.00;99.90
16297;DHT22;8256;56.144;13.394;2022-09-09T06:50:26;13.80;99.90
16297;DHT22;8256;56.144;13.394;2022-09-09T06:53:12;13.80;99.90
16297;DHT22;8256;56.144;13.394;2022-09-09T06:58:57;13.80;99.90
16297;DHT22;8256;56.144;13.394;2022-09-09T07:01:49;13.60;99.90
16297;DHT22;8256;56.144;13.394;2022-09-09T07:04:37;13.60;99.90
16297;DHT22;8256;56.144;13.394;2022-09-09T07:07:23;13.60;99.90
16297;DHT22;8256;56.144;13.394;2022-09-09T07:10:09;13.60;99.90
16297;DHT22;8256;56.144;13.394;2022-09-09T07:12:55;13.70;99.90
16297;DHT22;8256;56.144;13.394;2022-09-09T07:15:41;13.60;99.90
16297;DHT22;8256;56.144;13.394;2022-09-09T07:18:27;13.70;99.90
16297;DHT22;8256;56.144;13.394;2022-09-09T07:21:13;13.60;99.90
16297;DHT22;8256;56.144;13.394;2022-09-09T07:24:00;13.70;99.90
16297;DHT22;8256;56.144;13.394;2022-09-09T07:26:46;13.70;99.90
16297;DHT22;8256;56.144;13.394;2022-09-09T07:29:31;13.60;99.90
16297;DHT22;8256;56.144;13.394;2022-09-09T07:32:17;13.70;99.90
16297;DHT22;8256;56.144;13.394;2022-09-09T07:35:05;13.60;99.90
16297;DHT22;8256;56.144;13.394;2022-09-09T07:37:51;13.70;99.90
16297;DHT22;8256;56.144;13.394;2022-09-09T07:40:37;13.80;99.90
16297;DHT22;8256;56.144;13.394;2022-09-09T07:43:25;13.70;99.90
16297;DHT22;8256;56.144;13.394;2022-09-09T07:46:12;13.60;99.90
16297;DHT22;8256;56.144;13.394;2022-09-09T07:48:58;13.60;99.90
16297;DHT22;8256;56.144;13.394;2022-09-09T07:51:45;13.50;99.90
16297;DHT22;8256;56.144;13.394;2022-09-09T07:54:31;13.60;99.90
16297;DHT22;8256;56.144;13.394;2022-09-09T07:57:18;13.60;99.90
16297;DHT22;8256;56.144;13.394;2022-09-09T08:00:04;13.60;99.90
16297;DHT22;8256;56.144;13.394;2022-09-09T08:02:50;13.50;99.90
16297;DHT22;8256;56.144;13.394;2022-09-09T08:05:36;13.70;99.90
16297;DHT22;8256;56.144;13.394;2022-09-09T08:08:21;13.60;99.90
16297;DHT22;8256;56.144;13.394;2022-09-09T08:11:09;13.70;99.90
16297;DHT22;8256;56.144;13.394;2022-09-09T08:13:55;13.80;99.90
16297;DHT22;8256;56.144;13.394;2022-09-09T08:16:43;13.70;99.90
16297;DHT22;8256;56.144;13.394;2022-09-09T08:19:30;13.70;99.90
16297;DHT22;8256;56.144;13.394;2022-09-09T08:22:16;13.90;99.90
16297;DHT22;8256;56.144;13.394;2022-09-09T08:25:02;13.70;99.90
16297;DHT22;8256;56.144;13.394;2022-09-09T08:27:52;13.90;99.90
16297;DHT22;8256;56.144;13.394;2022-09-09T08:30:38;14.10;99.90
16297;DHT22;8256;56.144;13.394;2022-09-09T08:33:24;14.00;99.90
16297;DHT22;8256;56.144;13.394;2022-09-09T08:36:12;14.30;99.90
16297;DHT22;8256;56.144;13.394;2022-09-09T08:38:59;14.40;99.90
16297;DHT22;8256;56.144;13.394;2022-09-09T08:47:23;14.60;99.90
16297;DHT22;8256;56.144;13.394;2022-09-09T08:50:24;14.40;99.90
16297;DHT22;8256;56.144;13.394;2022-09-09T08:53:21;14.50;99.90
16297;DHT22;8256;56.144;13.394;2022-09-09T08:56:09;14.60;99.90
16297;DHT22;8256;56.144;13.394;2022-09-09T08:58:57;14.60;99.90
16297;DHT22;8256;56.144;13.394;2022-09-09T09:02:03;14.60;99.90
16297;DHT22;8256;56.144;13.394;2022-09-09T09:08:01;14.50;99.90
16297;DHT22;8256;56.144;13.394;2022-09-09T09:10:49;14.60;99.90
16297;DHT22;8256;56.144;13.394;2022-09-09T09:16:32;14.50;99.90
16297;DHT22;8256;56.144;13.394;2022-09-09T09:19:19;14.60;99.90
16297;DHT22;8256;56.144;13.394;2022-09-09T09:25:08;14.70;99.90
16297;DHT22;8256;56.144;13.394;2022-09-09T09:27:58;14.90;99.90
16297;DHT22;8256;56.144;13.394;2022-09-09T09:30:55;14.90;99.90
16297;DHT22;8256;56.144;13.394;2022-09-09T09:33:48;15.10;99.90
16297;DHT22;8256;56.144;13.394;2022-09-09T09:36:39;15.20;99.90
16297;DHT22;8256;56.144;13.394;2022-09-09T09:39:26;15.40;99.90
16297;DHT22;8256;56.144;13.394;2022-09-09T09:42:12;15.30;99.90
16297;DHT22;8256;56.144;13.394;2022-09-09T09:48:21;15.10;99.90
16297;DHT22;8256;56.144;13.394;2022-09-09T09:51:08;15.30;99.90
16297;DHT22;8256;56.144;13.394;2022-09-09T09:54:07;15.40;99.90
16297;DHT22;8256;56.144;13.394;2022-09-09T09:56:55;15.30;99.90
16297;DHT22;8256;56.144;13.394;2022-09-09T09:59:41;15.20;99.90
16297;DHT22;8256;56.144;13.394;2022-09-09T10:02:37;15.20;99.90
16297;DHT22;8256;56.144;13.394;2022-09-09T10:05:24;15.30;99.90
16297;DHT22;8256;56.144;13.394;2022-09-09T10:08:12;15.30;99.90
16297;DHT22;8256;56.144;13.394;2022-09-09T10:14:03;15.20;99.90
16297;DHT22;8256;56.144;13.394;2022-09-09T10:19:42;15.10;99.90
16297;DHT22;8256;56.144;13.394;2022-09-09T10:22:32;15.10;99.90
16297;DHT22;8256;56.144;13.394;2022-09-09T10:30:54;15.20;99.90
16297;DHT22;8256;56.144;13.394;2022-09-09T10:33:51;15.30;99.90
16297;DHT22;8256;56.144;13.394;2022-09-09T10:36:44;15.20;99.90
16297;DHT22;8256;56.144;13.394;2022-09-09T10:39:35;15.30;99.90
16297;DHT22;8256;56.144;13.394;2022-09-09T10:42:22;15.20;99.90
16297;DHT22;8256;56.144;13.394;2022-09-09T10:45:29;15.50;99.90
16297;DHT22;8256;56.144;13.394;2022-09-09T10:48:23;15.40;99.90
16297;DHT22;8256;56.144;13.394;2022-09-09T10:51:28;15.60;99.90
16297;DHT22;8256;56.144;13.394;2022-09-09T10:54:32;15.70;99.90
16297;DHT22;8256;56.144;13.394;2022-09-09T10:57:40;15.80;99.90
16297;DHT22;8256;56.144;13.394;2022-09-09T11:00:44;16.00;99.90
16297;DHT22;8256;56.144;13.394;2022-09-09T11:03:31;16.00;99.90
16297;DHT22;8256;56.144;13.394;2022-09-09T11:06:19;16.10;99.90
16297;DHT22;8256;56.144;13.394;2022-09-09T11:09:05;16.20;99.90
16297;DHT22;8256;56.144;13.394;2022-09-09T11:11:53;16.20;99.90
16297;DHT22;8256;56.144;13.394;2022-09-09T11:14:45;16.20;99.90
16297;DHT22;8256;56.144;13.394;2022-09-09T11:17:33;16.50;99.90
16297;DHT22;8256;56.144;13.394;2022-09-09T11:20:21;16.70;99.90
16297;DHT22;8256;56.144;13.394;2022-09-09T11:23:10;17.00;99.90
16297;DHT22;8256;56.144;13.394;2022-09-09T11:25:58;17.20;99.90
16297;DHT22;8256;56.144;13.394;2022-09-09T11:31:41;17.90;99.90
16297;DHT22;8256;56.144;13.394;2022-09-09T11:37:49;18.10;99.90
16297;DHT22;8256;56.144;13.394;2022-09-09T11:40:36;18.00;99.90
16297;DHT22;8256;56.144;13.394;2022-09-09T11:43:30;17.80;99.90
16297;DHT22;8256;56.144;13.394;2022-09-09T11:46:18;17.90;99.90
16297;DHT22;8256;56.144;13.394;2022-09-09T11:49:05;18.00;99.90
16297;DHT22;8256;56.144;13.394;2022-09-09T11:51:51;17.80;99.90
16297;DHT22;8256;56.144;13.394;2022-09-09T11:54:44;18.10;99.90
16297;DHT22;8256;56.144;13.394;2022-09-09T11:57:32;18.20;99.90
16297;DHT22;8256;56.144;13.394;2022-09-09T12:00:36;17.90;99.90
16297;DHT22;8256;56.144;13.394;2022-09-09T12:03:36;17.90;99.90
16297;DHT22;8256;56.144;13.394;2022-09-09T12:06:26;17.80;99.90
16297;DHT22;8256;56.144;13.394;2022-09-09T12:09:22;17.60;99.90
16297;DHT22;8256;56.144;13.394;2022-09-09T12:14:59;17.70;99.90
16297;DHT22;8256;56.144;13.394;2022-09-09T12:17:52;17.70;99.90
16297;DHT22;8256;56.144;13.394;2022-09-09T12:20:38;18.00;99.90
16297;DHT22;8256;56.144;13.394;2022-09-09T12:23:36;18.30;99.90
16297;DHT22;8256;56.144;13.394;2022-09-09T12:34:48;18.60;99.90
16297;DHT22;8256;56.144;13.394;2022-09-09T12:37:41;18.70;99.90
16297;DHT22;8256;56.144;13.394;2022-09-09T12:40:28;18.80;99.90
16297;DHT22;8256;56.144;13.394;2022-09-09T12:43:18;19.00;99.90
16297;DHT22;8256;56.144;13.394;2022-09-09T12:46:08;18.80;99.90
16297;DHT22;8256;56.144;13.394;2022-09-09T12:48:57;18.70;99.90
16297;DHT22;8256;56.144;13.394;2022-09-09T12:51:43;18.60;99.90
16297;DHT22;8256;56.144;13.394;2022-09-09T12:54:29;18.60;99.90
16297;DHT22;8256;56.144;13.394;2022-09-09T12:57:14;18.60;99.90
16297;DHT22;8256;56.144;13.394;2022-09-09T13:00:05;18.80;99.90
16297;DHT22;8256;56.144;13.394;2022-09-09T13:02:55;18.90;99.90
16297;DHT22;8256;56.144;13.394;2022-09-09T13:05:41;19.10;99.90
16297;DHT22;8256;56.144;13.394;2022-09-09T13:08:27;19.10;99.90
16297;DHT22;8256;56.144;13.394;2022-09-09T13:11:14;19.40;99.90
16297;DHT22;8256;56.144;13.394;2022-09-09T13:14:02;19.60;99.90
16297;DHT22;8256;56.144;13.394;2022-09-09T13:17:22;19.60;99.90
16297;DHT22;8256;56.144;13.394;2022-09-09T13:20:00;19.70;99.90
16297;DHT22;8256;56.144;13.394;2022-09-09T13:22:47;19.60;99.90
16297;DHT22;8256;56.144;13.394;2022-09-09T13:25:34;19.30;99.90
16297;DHT22;8256;56.144;13.394;2022-09-09T13:28:21;19.00;99.90
16297;DHT22;8256;56.144;13.394;2022-09-09T13:31:19;19.00;99.90
16297;DHT22;8256;56.144;13.394;2022-09-09T13:34:12;19.00;99.90
16297;DHT22;8256;56.144;13.394;2022-09-09T13:36:59;19.00;99.90
16297;DHT22;8256;56.144;13.394;2022-09-09T13:39:50;19.20;99.90
16297;DHT22;8256;56.144;13.394;2022-09-09T13:42:39;19.10;99.90
16297;DHT22;8256;56.144;13.394;2022-09-09T13:45:28;19.30;99.90
16297;DHT22;8256;56.144;13.394;2022-09-09T13:48:17;19.30;99.90
16297;DHT22;8256;56.144;13.394;2022-09-09T13:51:04;19.40;99.90
16297;DHT22;8256;56.144;13.394;2022-09-09T13:53:51;19.30;99.90
16297;DHT22;8256;56.144;13.394;2022-09-09T13:56:38;19.40;99.90
16297;DHT22;8256;56.144;13.394;2022-09-09T13:59:24;19.40;99.90
16297;DHT22;8256;56.144;13.394;2022-09-09T14:02:11;19.20;99.90
16297;DHT22;8256;56.144;13.394;2022-09-09T14:04:57;19.00;99.90
16297;DHT22;8256;56.144;13.394;2022-09-09T14:07:43;19.00;99.90
16297;DHT22;8256;56.144;13.394;2022-09-09T14:10:29;19.00;99.90
16297;DHT22;8256;56.144;13.394;2022-09-09T14:13:15;18.80;99.90
16297;DHT22;8256;56.144;13.394;2022-09-09T14:16:01;18.90;99.90
16297;DHT22;8256;56.144;13.394;2022-09-09T14:18:47;19.00;99.90
16297;DHT22;8256;56.144;13.394;2022-09-09T14:21:33;19.10;99.90
16297;DHT22;8256;56.144;13.394;2022-09-09T14:24:18;19.10;99.90
16297;DHT22;8256;56.144;13.394;2022-09-09T14:27:05;19.00;99.90
16297;DHT22;8256;56.144;13.394;2022-09-09T14:29:50;19.00;99.90
16297;DHT22;8256;56.144;13.394;2022-09-09T14:32:36;19.00;99.90
16297;DHT22;8256;56.144;13.394;2022-09-09T14:35:22;18.90;99.90
16297;DHT22;8256;56.144;13.394;2022-09-09T14:38:08;18.90;99.90
16297;DHT22;8256;56.144;13.394;2022-09-09T14:40:54;19.00;99.90
16297;DHT22;8256;56.144;13.394;2022-09-09T14:43:40;19.00;99.90
16297;DHT22;8256;56.144;13.394;2022-09-09T14:46:26;19.00;99.90
16297;DHT22;8256;56.144;13.394;2022-09-09T14:49:12;18.80;99.90
16297;DHT22;8256;56.144;13.394;2022-09-09T14:51:58;18.80;99.90
16297;DHT22;8256;56.144;13.394;2022-09-09T14:54:44;18.80;99.90
16297;DHT22;8256;56.144;13.394;2022-09-09T14:57:30;18.50;99.90
16297;DHT22;8256;56.144;13.394;2022-09-09T15:00:16;18.30;99.90
16297;DHT22;8256;56.144;13.394;2022-09-09T15:03:02;18.40;99.90
16297;DHT22;8256;56.144;13.394;2022-09-09T15:05:48;18.40;99.90
16297;DHT22;8256;56.144;13.394;2022-09-09T15:08:34;18.40;99.90
16297;DHT22;8256;56.144;13.394;2022-09-09T15:11:20;18.30;99.90
16297;DHT22;8256;56.144;13.394;2022-09-09T15:14:07;18.20;99.90
16297;DHT22;8256;56.144;13.394;2022-09-09T15:16:53;18.30;99.90
16297;DHT22;8256;56.144;13.394;2022-09-09T15:19:39;18.40;99.90
16297;DHT22;8256;56.144;13.394;2022-09-09T15:22:24;18.50;99.90
16297;DHT22;8256;56.144;13.394;2022-09-09T15:25:10;18.50;99.90
16297;DHT22;8256;56.144;13.394;2022-09-09T15:27:57;18.40;99.90
16297;DHT22;8256;56.144;13.394;2022-09-09T15:30:43;18.60;99.90
16297;DHT22;8256;56.144;13.394;2022-09-09T15:33:32;18.70;99.90
16297;DHT22;8256;56.144;13.394;2022-09-09T15:36:19;18.40;99.90
16297;DHT22;8256;56.144;13.394;2022-09-09T15:39:06;18.40;99.90
16297;DHT22;8256;56.144;13.394;2022-09-09T15:41:52;18.20;99.90
16297;DHT22;8256;56.144;13.394;2022-09-09T15:44:38;18.20;99.90
16297;DHT22;8256;56.144;13.394;2022-09-09T15:47:24;18.10;99.90
16297;DHT22;8256;56.144;13.394;2022-09-09T15:50:10;17.90;99.90
16297;DHT22;8256;56.144;13.394;2022-09-09T15:52:56;17.80;99.90
16297;DHT22;8256;56.144;13.394;2022-09-09T15:55:42;17.80;99.90
16297;DHT22;8256;56.144;13.394;2022-09-09T15:58:31;17.80;99.90
16297;DHT22;8256;56.144;13.394;2022-09-09T16:01:17;17.60;99.90
16297;DHT22;8256;56.144;13.394;2022-09-09T16:04:04;17.50;99.90
16297;DHT22;8256;56.144;13.394;2022-09-09T16:06:51;17.40;99.90
16297;DHT22;8256;56.144;13.394;2022-09-09T16:09:36;17.30;99.90
16297;DHT22;8256;56.144;13.394;2022-09-09T16:12:22;17.20;99.90
16297;DHT22;8256;56.144;13.394;2022-09-09T16:15:08;17.00;99.90
16297;DHT22;8256;56.144;13.394;2022-09-09T16:17:54;16.90;99.90
16297;DHT22;8256;56.144;13.394;2022-09-09T16:20:40;16.70;99.90
16297;DHT22;8256;56.144;13.394;2022-09-09T16:23:26;16.60;99.90
16297;DHT22;8256;56.144;13.394;2022-09-09T16:26:13;16.60;99.90
16297;DHT22;8256;56.144;13.394;2022-09-09T16:28:59;16.60;99.90
16297;DHT22;8256;56.144;13.394;2022-09-09T16:31:46;16.60;99.90
16297;DHT22;8256;56.144;13.394;2022-09-09T16:34:32;16.60;99.90
16297;DHT22;8256;56.144;13.394;2022-09-09T16:37:18;16.70;99.90
16297;DHT22;8256;56.144;13.394;2022-09-09T16:40:04;16.70;99.90
16297;DHT22;8256;56.144;13.394;2022-09-09T16:42:50;16.70;99.90
16297;DHT22;8256;56.144;13.394;2022-09-09T16:45:43;16.70;99.90
16297;DHT22;8256;56.144;13.394;2022-09-09T16:48:32;16.70;99.90
16297;DHT22;8256;56.144;13.394;2022-09-09T16:51:23;16.60;99.90
16297;DHT22;8256;56.144;13.394;2022-09-09T16:54:09;16.60;99.90
16297;DHT22;8256;56.144;13.394;2022-09-09T16:56:55;16.60;99.90
16297;DHT22;8256;56.144;13.394;2022-09-09T16:59:41;16.50;99.90
16297;DHT22;8256;56.144;13.394;2022-09-09T17:02:27;16.50;99.90
16297;DHT22;8256;56.144;13.394;2022-09-09T17:05:14;16.40;99.90
16297;DHT22;8256;56.144;13.394;2022-09-09T17:08:00;16.40;99.90
16297;DHT22;8256;56.144;13.394;2022-09-09T17:10:46;16.40;99.90
16297;DHT22;8256;56.144;13.394;2022-09-09T17:13:32;16.40;99.90
16297;DHT22;8256;56.144;13.394;2022-09-09T17:16:19;16.30;99.90
16297;DHT22;8256;56.144;13.394;2022-09-09T17:19:07;16.30;99.90
16297;DHT22;8256;56.144;13.394;2022-09-09T17:21:54;16.10;99.90
16297;DHT22;8256;56.144;13.394;2022-09-09T17:24:42;16.10;99.90
16297;DHT22;8256;56.144;13.394;2022-09-09T17:27:29;15.90;99.90
16297;DHT22;8256;56.144;13.394;2022-09-09T17:30:17;15.90;99.90
16297;DHT22;8256;56.144;13.394;2022-09-09T17:33:03;15.80;99.90
16297;DHT22;8256;56.144;13.394;2022-09-09T17:35:49;15.70;99.90
16297;DHT22;8256;56.144;13.394;2022-09-09T17:38:35;15.60;99.90
16297;DHT22;8256;56.144;13.394;2022-09-09T17:41:22;15.50;99.90
16297;DHT22;8256;56.144;13.394;2022-09-09T17:44:08;15.30;99.90
16297;DHT22;8256;56.144;13.394;2022-09-09T17:46:54;15.30;99.90
16297;DHT22;8256;56.144;13.394;2022-09-09T17:49:40;15.30;99.90
16297;DHT22;8256;56.144;13.394;2022-09-09T17:52:27;15.20;99.90
16297;DHT22;8256;56.144;13.394;2022-09-09T17:55:13;15.20;99.90
16297;DHT22;8256;56.144;13.394;2022-09-09T17:57:59;15.20;99.90
16297;DHT22;8256;56.144;13.394;2022-09-09T18:00:44;15.30;99.90
16297;DHT22;8256;56.144;13.394;2022-09-09T18:03:32;15.30;99.90
16297;DHT22;8256;56.144;13.394;2022-09-09T18:06:22;15.30;99.90
16297;DHT22;8256;56.144;13.394;2022-09-09T18:09:10;15.30;99.90
16297;DHT22;8256;56.144;13.394;2022-09-09T18:11:57;15.20;99.90
16297;DHT22;8256;56.144;13.394;2022-09-09T18:14:44;15.20;99.90
16297;DHT22;8256;56.144;13.394;2022-09-09T18:17:30;15.00;99.90
16297;DHT22;8256;56.144;13.394;2022-09-09T18:20:16;15.00;99.90
16297;DHT22;8256;56.144;13.394;2022-09-09T18:23:02;14.90;99.90
16297;DHT22;8256;56.144;13.394;2022-09-09T18:25:48;14.80;99.90
16297;DHT22;8256;56.144;13.394;2022-09-09T18:28:34;14.80;99.90
16297;DHT22;8256;56.144;13.394;2022-09-09T18:31:21;14.70;99.90
16297;DHT22;8256;56.144;13.394;2022-09-09T18:34:11;14.70;99.90
16297;DHT22;8256;56.144;13.394;2022-09-09T18:36:57;14.70;99.90
16297;DHT22;8256;56.144;13.394;2022-09-09T18:39:43;14.70;99.90
16297;DHT22;8256;56.144;13.394;2022-09-09T18:42:29;14.60;99.90